Time;durP1;ratioP1;P1;durP2;ratioP2;P2;SDS_P1;SDS_P2;PMS_P1;PMS_P2;Temp;Humidity;BMP_temperature;BMP_pressure;BME280_temperature;BME280_humidity;BME280_pressure;Samples;Min_cycle;Max_cycle;Signal;HPM_P1;HPM_P2
2022/07/05 00:01:15;;;;;;;3.75;1.17;;;22.50;54.80;;;;;;20830653;28;20044;-76
2022/07/05 00:11:15;;;;;;;3.93;0.73;;;22.50;54.80;;;;;;20809280;28;20463;-76
2022/07/05 00:21:16;;;;;;;1.85;0.90;;;22.40;54.70;;;;;;20879661;28;20283;-76
2022/07/05 00:31:17;;;;;;;2.20;0.93;;;22.40;54.70;;;;;;20901298;28;20037;-78
2022/07/05 00:41:17;;;;;;;3.03;0.80;;;22.40;54.70;;;;;;20872350;28;20133;-76
2022/07/05 00:51:18;;;;;;;3.00;1.15;;;22.30;54.60;;;;;;21149183;23;20127;-76
2022/07/05 01:01:19;;;;;;;1.93;0.90;;;22.30;54.60;;;;;;20770562;28;20582;-76
2022/07/05 01:11:20;;;;;;;3.47;1.10;;;22.20;54.50;;;;;;20790115;28;20778;-77
2022/07/05 01:21:20;;;;;;;3.85;1.20;;;22.20;54.40;;;;;;20762991;28;20112;-77
2022/07/05 01:31:21;;;;;;;3.17;1.08;;;22.10;54.40;;;;;;20772020;28;20044;-76
2022/07/05 01:41:22;;;;;;;2.00;0.90;;;22.00;54.30;;;;;;20780722;28;20033;-76
2022/07/05 01:51:29;;;;;;;3.30;1.00;;;22.00;54.30;;;;;;20794579;28;20073;-76
2022/07/05 02:01:37;;;;;;;3.75;1.15;;;21.90;54.10;;;;;;20751333;28;20033;-76
2022/07/05 02:11:38;;;;;;;3.10;1.00;;;21.90;54.10;;;;;;20750523;28;20033;-76
2022/07/05 02:21:39;;;;;;;5.18;1.17;;;21.80;54.00;;;;;;20763504;28;20033;-76
2022/07/05 02:31:44;;;;;;;3.95;1.60;;;21.80;54.00;;;;;;20781674;28;20145;-77
2022/07/05 02:41:45;;;;;;;3.50;1.33;;;21.70;53.80;;;;;;20744720;28;20546;-76
2022/07/05 02:51:46;;;;;;;1.70;0.80;;;21.60;53.70;;;;;;20807556;28;20141;-78
2022/07/05 03:01:48;;;;;;;2.70;1.20;;;21.50;53.60;;;;;;20776084;28;20769;-77
2022/07/05 03:11:50;;;;;;;1.35;0.80;;;21.50;53.60;;;;;;20761962;28;20038;-77
2022/07/05 03:21:51;;;;;;;2.22;1.20;;;21.50;53.60;;;;;;20748710;28;20036;-76
2022/07/05 03:31:54;;;;;;;1.65;1.17;;;21.40;53.50;;;;;;20764350;28;20038;-77
2022/07/05 03:41:54;;;;;;;2.80;0.80;;;21.30;53.40;;;;;;20735144;28;20034;-77
2022/07/05 03:51:58;;;;;;;3.30;1.10;;;21.40;53.50;;;;;;20788189;28;20088;-76
2022/07/05 04:02:00;;;;;;;2.38;1.10;;;21.30;53.60;;;;;;20810710;28;20034;-77
2022/07/05 04:12:00;;;;;;;1.80;1.05;;;21.20;53.70;;;;;;20758053;28;20045;-77
2022/07/05 04:22:02;;;;;;;3.33;1.25;;;21.20;53.90;;;;;;20757503;28;20472;-73
2022/07/05 04:32:04;;;;;;;3.92;1.17;;;21.20;54.20;;;;;;20772360;28;20038;-75
2022/07/05 04:42:05;;;;;;;1.45;1.05;;;21.10;54.50;;;;;;20767841;28;20042;-79
2022/07/05 04:52:06;;;;;;;3.67;1.42;;;21.10;54.80;;;;;;20816342;28;20037;-78
2022/07/05 05:02:07;;;;;;;2.75;1.00;;;21.10;55.20;;;;;;20803826;28;20586;-76
2022/07/05 05:12:08;;;;;;;2.88;1.02;;;21.10;55.60;;;;;;20786217;28;20046;-73
2022/07/05 05:22:09;;;;;;;2.53;1.25;;;21.10;56.00;;;;;;20731263;28;20124;-73
2022/07/05 05:32:10;;;;;;;3.00;1.05;;;21.10;56.30;;;;;;20797725;28;20133;-74
2022/07/05 05:42:10;;;;;;;6.82;1.20;;;21.10;56.60;;;;;;20767367;28;20032;-77
2022/07/05 05:52:11;;;;;;;3.75;1.10;;;21.20;56.80;;;;;;20802095;28;20038;-82
2022/07/05 06:02:11;;;;;;;2.92;0.80;;;21.10;57.20;;;;;;20797541;28;20061;-84
2022/07/05 06:12:13;;;;;;;2.45;1.05;;;21.10;57.30;;;;;;20796426;28;20106;-82
2022/07/05 06:22:13;;;;;;;2.00;1.00;;;21.20;57.20;;;;;;20812631;28;20029;-80
2022/07/05 06:32:14;;;;;;;2.90;0.85;;;21.30;57.10;;;;;;20811638;28;20128;-79
2022/07/05 06:42:15;;;;;;;2.10;1.00;;;21.30;57.10;;;;;;20771464;28;20041;-80
2022/07/05 06:52:16;;;;;;;3.97;0.82;;;21.40;57.10;;;;;;20809702;28;20033;-80
2022/07/05 07:02:17;;;;;;;2.33;1.20;;;21.50;57.10;;;;;;20794227;28;20033;-79
2022/07/05 07:12:17;;;;;;;4.20;0.70;;;21.50;57.00;;;;;;20813450;28;20296;-79
2022/07/05 07:22:18;;;;;;;2.47;0.75;;;21.60;57.00;;;;;;20758230;28;20280;-79
2022/07/05 07:32:18;;;;;;;3.03;0.63;;;21.70;57.00;;;;;;20765190;28;20048;-74
2022/07/05 07:42:19;;;;;;;4.03;0.67;;;21.70;56.90;;;;;;20760415;28;20102;-75
2022/07/05 07:52:20;;;;;;;2.38;1.33;;;21.70;56.80;;;;;;20814316;28;20133;-75
2022/07/05 08:02:22;;;;;;;1.33;0.70;;;21.70;56.70;;;;;;20766545;28;20037;-76
2022/07/05 08:12:23;;;;;;;5.07;0.93;;;21.80;56.60;;;;;;20760449;28;20040;-78
2022/07/05 08:22:23;;;;;;;4.80;1.23;;;21.80;56.20;;;;;;20767524;28;20038;-76
2022/07/05 08:32:24;;;;;;;5.03;0.60;;;21.90;55.70;;;;;;20793179;28;20439;-77
2022/07/05 08:42:25;;;;;;;2.85;0.50;;;21.90;55.40;;;;;;20770436;28;20128;-76
2022/07/05 08:52:25;;;;;;;2.67;0.70;;;21.90;55.40;;;;;;20757601;28;20403;-75
2022/07/05 09:02:26;;;;;;;0.63;0.40;;;22.00;55.40;;;;;;20807425;28;20037;-74
2022/07/05 09:12:26;;;;;;;4.03;1.00;;;21.90;55.20;;;;;;20742237;28;20144;-75
2022/07/05 09:22:27;;;;;;;2.60;0.82;;;22.00;55.10;;;;;;20778721;28;20029;-75
2022/07/05 09:32:30;;;;;;;0.88;0.60;;;22.00;54.80;;;;;;20753516;28;20506;-74
2022/07/05 09:42:31;;;;;;;2.63;0.45;;;22.00;54.60;;;;;;20749776;28;20851;-75
2022/07/05 09:52:38;;;;;;;0.85;0.60;;;22.00;54.30;;;;;;20787137;28;20048;-76
2022/07/05 10:02:53;;;;;;;2.00;0.55;;;22.10;53.80;;;;;;20790022;28;20525;-76
2022/07/05 10:12:56;;;;;;;2.07;0.50;;;22.10;53.50;;;;;;20730663;28;20076;-75
2022/07/05 10:22:56;;;;;;;1.77;0.70;;;22.10;53.30;;;;;;20781005;28;20036;-75
2022/07/05 10:32:57;;;;;;;6.38;2.65;;;22.10;52.90;;;;;;20752987;28;20041;-76
2022/07/05 10:43:01;;;;;;;24.08;10.80;;;22.10;52.60;;;;;;20759943;28;20029;-74
2022/07/05 10:53:02;;;;;;;11.07;5.25;;;22.10;52.30;;;;;;20778880;28;20096;-75
2022/07/05 11:03:07;;;;;;;11.10;4.13;;;22.10;52.10;;;;;;20798039;28;20030;-71
2022/07/05 11:13:35;;;;;;;5.47;1.58;;;22.20;52.30;;;;;;20763400;28;20034;-72
2022/07/05 11:23:36;;;;;;;3.15;1.40;;;22.20;52.30;;;;;;20805092;28;20092;-75
2022/07/05 11:33:37;;;;;;;5.20;0.77;;;22.30;52.10;;;;;;20803868;28;20124;-74
2022/07/05 11:43:38;;;;;;;3.97;0.70;;;22.20;51.70;;;;;;20833100;28;20067;-73
2022/07/05 11:53:39;;;;;;;2.58;0.80;;;22.20;51.40;;;;;;20802767;28;20471;-74
2022/07/05 12:03:40;;;;;;;1.05;0.65;;;22.20;51.20;;;;;;20806171;28;20037;-74
2022/07/05 12:13:47;;;;;;;0.67;0.40;;;22.20;50.80;;;;;;20774438;28;20672;-74
2022/07/05 12:23:49;;;;;;;0.80;0.50;;;22.30;50.30;;;;;;20767800;28;20296;-75
2022/07/05 12:33:50;;;;;;;1.23;0.50;;;22.30;50.10;;;;;;20757349;28;20661;-74
2022/07/05 12:43:54;;;;;;;1.38;0.55;;;22.30;50.10;;;;;;20786660;28;20033;-75
2022/07/05 13:04:17;;;;;;;0.95;0.38;;;22.40;49.40;;;;;;20777181;28;20042;-73
2022/07/05 13:14:18;;;;;;;3.35;0.47;;;22.40;48.50;;;;;;20766866;28;20468;-73
2022/07/05 13:24:19;;;;;;;1.83;0.40;;;22.50;48.20;;;;;;20763843;28;20033;-74
2022/07/05 13:34:23;;;;;;;2.80;0.50;;;22.50;47.90;;;;;;20780878;28;20057;-75
2022/07/05 13:44:24;;;;;;;1.37;0.40;;;22.60;47.40;;;;;;20775903;28;20048;-77
2022/07/05 13:54:24;;;;;;;3.17;0.60;;;22.70;46.90;;;;;;20758736;28;20487;-76
2022/07/05 14:04:29;;;;;;;0.65;0.38;;;22.70;46.60;;;;;;20781809;28;20034;-77
2022/07/05 14:14:30;;;;;;;1.25;0.35;;;22.80;46.80;;;;;;20770096;28;20041;-77
2022/07/05 14:24:30;;;;;;;0.45;0.38;;;22.80;46.60;;;;;;20745802;28;20033;-78
2022/07/05 14:34:31;;;;;;;1.45;0.50;;;22.90;46.70;;;;;;20738062;28;20391;-77
2022/07/05 14:44:33;;;;;;;5.93;0.88;;;23.00;46.80;;;;;;20753594;28;20037;-79
2022/07/05 14:54:33;;;;;;;2.53;0.57;;;23.10;46.70;;;;;;20785447;28;20431;-77
2022/07/05 15:04:34;;;;;;;1.10;0.57;;;23.10;46.60;;;;;;20789666;28;20037;-79
2022/07/05 15:14:35;;;;;;;0.30;0.30;;;23.20;46.60;;;;;;20790325;28;20132;-78
2022/07/05 15:24:35;;;;;;;3.50;0.40;;;23.30;46.30;;;;;;20823282;28;20116;-78
2022/07/05 15:34:36;;;;;;;2.10;0.60;;;23.40;46.20;;;;;;20771910;28;20034;-79
2022/07/05 15:44:36;;;;;;;1.05;0.30;;;23.30;46.30;;;;;;20791249;28;20042;-79
2022/07/05 15:54:37;;;;;;;0.60;0.40;;;23.40;46.30;;;;;;20817239;28;20033;-79
2022/07/05 16:04:38;;;;;;;2.33;0.60;;;23.40;46.30;;;;;;20803794;28;20064;-79
2022/07/05 16:14:38;;;;;;;1.00;0.40;;;23.50;46.30;;;;;;20761805;28;20292;-77
2022/07/05 16:24:39;;;;;;;1.45;0.40;;;23.50;46.30;;;;;;20772279;28;20029;-78
2022/07/05 16:34:39;;;;;;;3.95;0.45;;;23.60;46.30;;;;;;20757309;28;20157;-75
2022/07/05 16:44:40;;;;;;;2.05;0.47;;;23.50;46.30;;;;;;20828428;28;20041;-72
2022/07/05 16:54:41;;;;;;;0.50;0.50;;;23.50;46.50;;;;;;20779659;28;20038;-74
2022/07/05 17:04:42;;;;;;;2.50;0.40;;;23.60;46.60;;;;;;20776498;28;20280;-72
2022/07/05 17:14:42;;;;;;;1.33;0.30;;;23.60;46.50;;;;;;20770412;28;20046;-72
2022/07/05 17:24:43;;;;;;;0.65;0.50;;;23.70;46.40;;;;;;20778360;28;20083;-71
2022/07/05 17:34:44;;;;;;;2.38;0.50;;;23.70;46.20;;;;;;20746778;28;20044;-71
2022/07/05 17:44:44;;;;;;;2.70;0.40;;;23.70;46.20;;;;;;20749619;28;20049;-72
2022/07/05 17:54:45;;;;;;;1.83;0.57;;;23.70;46.10;;;;;;20788681;28;20047;-76
2022/07/05 18:04:47;;;;;;;1.27;0.47;;;23.60;46.20;;;;;;20747491;28;20049;-74
2022/07/05 18:14:48;;;;;;;0.83;0.60;;;23.50;46.30;;;;;;20749154;28;20037;-75
2022/07/05 18:24:48;;;;;;;3.35;0.60;;;23.40;46.60;;;;;;20777981;28;20038;-79
2022/07/05 18:34:49;;;;;;;1.52;0.65;;;23.30;46.90;;;;;;20750076;28;20042;-79
2022/07/05 18:44:49;;;;;;;1.45;0.80;;;23.30;47.10;;;;;;20749739;28;20097;-74
2022/07/05 18:54:52;;;;;;;1.65;0.70;;;23.20;47.20;;;;;;20780396;28;20033;-75
2022/07/05 19:04:53;;;;;;;1.33;0.60;;;23.20;47.30;;;;;;20744447;28;20045;-75
2022/07/05 19:14:56;;;;;;;0.93;0.50;;;23.20;47.50;;;;;;20766692;28;20120;-76
2022/07/05 19:24:57;;;;;;;0.85;0.52;;;23.20;47.60;;;;;;20771917;28;20114;-75
2022/07/05 19:34:58;;;;;;;1.90;0.77;;;23.20;47.70;;;;;;20786394;28;20491;-75
2022/07/05 19:44:59;;;;;;;1.83;0.50;;;23.10;47.70;;;;;;20762605;28;20119;-74
2022/07/05 19:55:00;;;;;;;1.08;0.63;;;23.10;47.80;;;;;;20828363;28;20054;-74
2022/07/05 20:05:00;;;;;;;3.72;0.70;;;23.10;47.80;;;;;;20781695;28;20045;-74
2022/07/05 20:15:01;;;;;;;1.35;0.43;;;22.90;48.00;;;;;;20791564;28;20117;-74
2022/07/05 20:25:01;;;;;;;2.13;0.68;;;22.90;48.30;;;;;;20740176;28;20087;-77
2022/07/05 20:35:02;;;;;;;3.13;0.50;;;22.80;49.30;;;;;;20787710;28;20394;-75
2022/07/05 20:45:04;;;;;;;0.43;0.30;;;22.70;49.10;;;;;;20809742;28;20395;-76
2022/07/05 20:55:05;;;;;;;3.22;0.52;;;22.70;49.50;;;;;;20792228;28;20064;-76
2022/07/05 21:05:06;;;;;;;1.92;0.65;;;22.70;49.90;;;;;;20767008;28;20034;-76
2022/07/05 21:15:07;;;;;;;2.08;0.30;;;22.60;50.10;;;;;;20756541;28;20033;-76
2022/07/05 21:25:08;;;;;;;2.03;0.50;;;22.60;50.30;;;;;;20752184;28;20455;-76
2022/07/05 21:35:08;;;;;;;3.90;0.80;;;22.60;50.40;;;;;;20755026;28;20072;-75
2022/07/05 21:45:10;;;;;;;1.40;0.52;;;22.60;50.80;;;;;;20788243;28;20048;-75
2022/07/05 21:55:11;;;;;;;0.90;0.40;;;22.60;50.70;;;;;;20805555;28;20124;-75
2022/07/05 22:05:12;;;;;;;0.52;0.38;;;22.60;50.60;;;;;;20748921;28;20029;-75
2022/07/05 22:15:12;;;;;;;3.03;0.70;;;22.70;50.70;;;;;;20762060;28;20044;-75
2022/07/05 22:25:13;;;;;;;1.83;0.50;;;22.70;50.80;;;;;;20764112;28;20288;-75
2022/07/05 22:35:13;;;;;;;1.08;0.40;;;22.70;50.90;;;;;;20759578;28;20299;-76
2022/07/05 22:45:14;;;;;;;1.30;0.25;;;22.60;51.00;;;;;;20772270;28;20037;-75
2022/07/05 22:55:15;;;;;;;2.83;1.00;;;22.60;51.20;;;;;;20785343;28;20124;-76
2022/07/05 23:05:15;;;;;;;2.03;0.53;;;22.50;51.30;;;;;;20773700;28;20311;-76
2022/07/05 23:15:16;;;;;;;1.97;0.67;;;22.50;51.30;;;;;;20738571;28;20293;-75
2022/07/05 23:25:16;;;;;;;1.98;0.80;;;22.50;51.40;;;;;;20744101;28;20407;-75
2022/07/05 23:35:17;;;;;;;0.70;0.35;;;22.40;51.50;;;;;;20759346;28;20540;-75
2022/07/05 23:45:18;;;;;;;5.03;0.55;;;22.30;51.60;;;;;;20758547;28;20049;-75
2022/07/05 23:55:18;;;;;;;1.77;0.65;;;22.30;51.70;;;;;;20800218;28;20037;-75
